Terminal Aerodrome Forecast
Issued by NWS

Home | Current Version | Previous Version | Graphics & Text | Print | Product List | Glossary On
Versions: 1 2 3 4 5 6 7 8 9 10 11 12 13 14 15 16 17 18 19
000
FTUS43 KGRB 221100 RRA
TAFCWA
TAF
KCWA 221148Z 2212/2312 14010KT 4SM BR BKN006 OVC010
      TEMPO 2212/2216 2SM -RASN BR
     FM221600 12009KT 5SM BR OVC012
      TEMPO 2219/2223 3SM -SN
     FM222300 10010G17KT 2SM -SN SCT006 OVC010
     FM230300 07012G19KT 1SM -SN BKN006 OVC012 WS012/09035KT=

USA.gov is the U.S. government's official web portal to all federal, state and local government web resources and services.